Terminal Aerodrome Forecast
Issued by NWS

Home | Current Version | Previous Version | Graphics & Text | Print | Product List | Glossary On
Versions: 1 2 3 4 5 6 7 8 9 10 11 12 13 14 15 16 17 18 19 20 21
000
FTUS43 KGRB 250400 AAA
TAFAUW
TAF AMD
KAUW 250443Z 2505/2524 07011G17KT P6SM -SN BKN015 OVC030
     FM251500 05010KT P6SM SCT018 SCT025
     FM252200 03006KT P6SM SKC=

USA.gov is the U.S. government's official web portal to all federal, state and local government web resources and services.